sensor_id;sensor_type;location;lat;lon;timestamp;temperature;humidity
11112;DHT22;5609;49.466;8.468;2023-04-07T00:00:39;8.00;99.90
11112;DHT22;5609;49.466;8.468;2023-04-07T00:03:06;7.90;99.90
11112;DHT22;5609;49.466;8.468;2023-04-07T00:05:34;7.90;99.90
11112;DHT22;5609;49.466;8.468;2023-04-07T00:08:01;7.90;99.90
11112;DHT22;5609;49.466;8.468;2023-04-07T00:10:27;7.90;99.90
11112;DHT22;5609;49.466;8.468;2023-04-07T00:12:54;7.80;99.90
11112;DHT22;5609;49.466;8.468;2023-04-07T00:15:21;7.80;99.90
11112;DHT22;5609;49.466;8.468;2023-04-07T00:17:48;7.80;99.90
11112;DHT22;5609;49.466;8.468;2023-04-07T00:20:14;7.80;99.90
11112;DHT22;5609;49.466;8.468;2023-04-07T00:22:43;7.80;99.90
11112;DHT22;5609;49.466;8.468;2023-04-07T00:25:09;7.70;99.90
11112;DHT22;5609;49.466;8.468;2023-04-07T00:27:36;7.70;99.90
11112;DHT22;5609;49.466;8.468;2023-04-07T00:30:04;7.70;99.90
11112;DHT22;5609;49.466;8.468;2023-04-07T00:32:31;7.70;99.90
11112;DHT22;5609;49.466;8.468;2023-04-07T00:34:57;7.70;99.90
11112;DHT22;5609;49.466;8.468;2023-04-07T00:37:25;7.70;99.90
11112;DHT22;5609;49.466;8.468;2023-04-07T00:39:53;7.70;99.90
11112;DHT22;5609;49.466;8.468;2023-04-07T00:42:20;7.70;99.90
11112;DHT22;5609;49.466;8.468;2023-04-07T00:44:47;7.70;99.90
11112;DHT22;5609;49.466;8.468;2023-04-07T00:47:14;7.70;99.90
11112;DHT22;5609;49.466;8.468;2023-04-07T00:49:41;7.60;99.90
11112;DHT22;5609;49.466;8.468;2023-04-07T00:52:08;7.70;99.90
11112;DHT22;5609;49.466;8.468;2023-04-07T00:54:36;7.70;99.90
11112;DHT22;5609;49.466;8.468;2023-04-07T00:57:05;7.60;99.90
11112;DHT22;5609;49.466;8.468;2023-04-07T00:59:32;7.60;99.90
11112;DHT22;5609;49.466;8.468;2023-04-07T01:02:04;7.70;99.90
11112;DHT22;5609;49.466;8.468;2023-04-07T01:04:40;7.70;99.90
11112;DHT22;5609;49.466;8.468;2023-04-07T01:07:11;7.60;99.90
11112;DHT22;5609;49.466;8.468;2023-04-07T01:09:45;7.60;99.90
11112;DHT22;5609;49.466;8.468;2023-04-07T01:12:20;7.70;99.90
11112;DHT22;5609;49.466;8.468;2023-04-07T01:14:52;7.60;99.90
11112;DHT22;5609;49.466;8.468;2023-04-07T01:17:20;7.70;99.90
11112;DHT22;5609;49.466;8.468;2023-04-07T01:19:54;7.60;99.90
11112;DHT22;5609;49.466;8.468;2023-04-07T01:22:25;7.60;99.90
11112;DHT22;5609;49.466;8.468;2023-04-07T01:25:17;7.60;99.90
11112;DHT22;5609;49.466;8.468;2023-04-07T01:28:09;7.60;99.90
11112;DHT22;5609;49.466;8.468;2023-04-07T01:30:40;7.60;99.90
11112;DHT22;5609;49.466;8.468;2023-04-07T01:33:09;7.50;99.90
11112;DHT22;5609;49.466;8.468;2023-04-07T01:35:38;7.50;99.90
11112;DHT22;5609;49.466;8.468;2023-04-07T01:38:07;7.50;99.90
11112;DHT22;5609;49.466;8.468;2023-04-07T01:40:35;7.50;99.90
11112;DHT22;5609;49.466;8.468;2023-04-07T01:43:03;7.50;99.90
11112;DHT22;5609;49.466;8.468;2023-04-07T01:45:31;7.50;99.90
11112;DHT22;5609;49.466;8.468;2023-04-07T01:48:03;7.50;99.90
11112;DHT22;5609;49.466;8.468;2023-04-07T01:50:30;7.50;99.90
11112;DHT22;5609;49.466;8.468;2023-04-07T01:52:58;7.50;99.90
11112;DHT22;5609;49.466;8.468;2023-04-07T01:55:25;7.50;99.90
11112;DHT22;5609;49.466;8.468;2023-04-07T01:57:52;7.50;99.90
11112;DHT22;5609;49.466;8.468;2023-04-07T02:00:19;7.50;99.90
11112;DHT22;5609;49.466;8.468;2023-04-07T02:02:47;7.50;99.90
11112;DHT22;5609;49.466;8.468;2023-04-07T02:05:18;7.50;99.90
11112;DHT22;5609;49.466;8.468;2023-04-07T02:07:50;7.50;99.90
11112;DHT22;5609;49.466;8.468;2023-04-07T02:10:20;7.50;99.90
11112;DHT22;5609;49.466;8.468;2023-04-07T02:12:47;7.50;99.90
11112;DHT22;5609;49.466;8.468;2023-04-07T02:15:15;7.50;99.90
11112;DHT22;5609;49.466;8.468;2023-04-07T02:17:44;7.60;99.90
11112;DHT22;5609;49.466;8.468;2023-04-07T02:20:13;7.60;99.90
11112;DHT22;5609;49.466;8.468;2023-04-07T02:22:42;7.60;99.90
11112;DHT22;5609;49.466;8.468;2023-04-07T02:25:23;7.50;99.90
11112;DHT22;5609;49.466;8.468;2023-04-07T02:27:50;7.60;99.90
11112;DHT22;5609;49.466;8.468;2023-04-07T02:30:17;7.50;99.90
11112;DHT22;5609;49.466;8.468;2023-04-07T02:32:44;7.50;99.90
11112;DHT22;5609;49.466;8.468;2023-04-07T02:35:11;7.50;99.90
11112;DHT22;5609;49.466;8.468;2023-04-07T02:37:38;7.40;99.90
11112;DHT22;5609;49.466;8.468;2023-04-07T02:40:07;7.40;99.90
11112;DHT22;5609;49.466;8.468;2023-04-07T02:42:34;7.30;99.90
11112;DHT22;5609;49.466;8.468;2023-04-07T02:45:02;7.30;99.90
11112;DHT22;5609;49.466;8.468;2023-04-07T02:47:28;7.30;99.90
11112;DHT22;5609;49.466;8.468;2023-04-07T02:49:55;7.30;99.90
11112;DHT22;5609;49.466;8.468;2023-04-07T02:52:22;7.20;99.90
11112;DHT22;5609;49.466;8.468;2023-04-07T02:54:49;7.20;99.90
11112;DHT22;5609;49.466;8.468;2023-04-07T02:57:17;7.20;99.90
11112;DHT22;5609;49.466;8.468;2023-04-07T02:59:44;7.10;99.90
11112;DHT22;5609;49.466;8.468;2023-04-07T03:02:11;7.10;99.90
11112;DHT22;5609;49.466;8.468;2023-04-07T03:04:37;7.10;99.90
11112;DHT22;5609;49.466;8.468;2023-04-07T03:07:04;7.10;99.90
11112;DHT22;5609;49.466;8.468;2023-04-07T03:09:31;7.00;99.90
11112;DHT22;5609;49.466;8.468;2023-04-07T03:11:57;7.00;99.90
11112;DHT22;5609;49.466;8.468;2023-04-07T03:14:26;7.00;99.90
11112;DHT22;5609;49.466;8.468;2023-04-07T03:16:52;7.00;99.90
11112;DHT22;5609;49.466;8.468;2023-04-07T03:19:19;6.90;99.90
11112;DHT22;5609;49.466;8.468;2023-04-07T03:21:46;6.90;99.90
11112;DHT22;5609;49.466;8.468;2023-04-07T03:24:12;6.90;99.90
11112;DHT22;5609;49.466;8.468;2023-04-07T03:26:39;6.90;99.90
11112;DHT22;5609;49.466;8.468;2023-04-07T03:29:06;7.00;99.90
11112;DHT22;5609;49.466;8.468;2023-04-07T03:31:34;7.00;99.90
11112;DHT22;5609;49.466;8.468;2023-04-07T03:34:02;7.10;99.90
11112;DHT22;5609;49.466;8.468;2023-04-07T03:36:28;7.10;99.90
11112;DHT22;5609;49.466;8.468;2023-04-07T03:38:56;7.10;99.90
11112;DHT22;5609;49.466;8.468;2023-04-07T03:41:23;7.20;99.90
11112;DHT22;5609;49.466;8.468;2023-04-07T03:43:49;7.20;99.90
11112;DHT22;5609;49.466;8.468;2023-04-07T03:46:18;7.20;99.90
11112;DHT22;5609;49.466;8.468;2023-04-07T03:48:46;7.30;99.90
11112;DHT22;5609;49.466;8.468;2023-04-07T03:51:13;7.30;99.90
11112;DHT22;5609;49.466;8.468;2023-04-07T03:53:40;7.30;99.90
11112;DHT22;5609;49.466;8.468;2023-04-07T03:56:06;7.40;99.90
11112;DHT22;5609;49.466;8.468;2023-04-07T03:58:33;7.40;99.90
11112;DHT22;5609;49.466;8.468;2023-04-07T04:01:00;7.40;99.90
11112;DHT22;5609;49.466;8.468;2023-04-07T04:03:27;7.40;99.90
11112;DHT22;5609;49.466;8.468;2023-04-07T04:05:55;7.40;99.90
11112;DHT22;5609;49.466;8.468;2023-04-07T04:08:21;7.40;99.90
11112;DHT22;5609;49.466;8.468;2023-04-07T04:10:48;7.40;99.90
11112;DHT22;5609;49.466;8.468;2023-04-07T04:13:15;7.40;99.90
11112;DHT22;5609;49.466;8.468;2023-04-07T04:15:42;7.40;99.90
11112;DHT22;5609;49.466;8.468;2023-04-07T04:18:09;7.40;99.90
11112;DHT22;5609;49.466;8.468;2023-04-07T04:20:36;7.40;99.90
11112;DHT22;5609;49.466;8.468;2023-04-07T04:23:04;7.40;99.90
11112;DHT22;5609;49.466;8.468;2023-04-07T04:25:30;7.40;99.90
11112;DHT22;5609;49.466;8.468;2023-04-07T04:27:57;7.40;99.90
11112;DHT22;5609;49.466;8.468;2023-04-07T04:30:24;7.40;99.90
11112;DHT22;5609;49.466;8.468;2023-04-07T04:32:50;7.40;99.90
11112;DHT22;5609;49.466;8.468;2023-04-07T04:35:17;7.40;99.90
11112;DHT22;5609;49.466;8.468;2023-04-07T04:37:44;7.40;99.90
11112;DHT22;5609;49.466;8.468;2023-04-07T04:40:13;7.40;99.90
11112;DHT22;5609;49.466;8.468;2023-04-07T04:42:40;7.40;99.90
11112;DHT22;5609;49.466;8.468;2023-04-07T04:45:07;7.30;99.90
11112;DHT22;5609;49.466;8.468;2023-04-07T04:47:34;7.30;99.90
11112;DHT22;5609;49.466;8.468;2023-04-07T04:50:03;7.30;99.90
11112;DHT22;5609;49.466;8.468;2023-04-07T04:52:30;7.30;99.90
11112;DHT22;5609;49.466;8.468;2023-04-07T04:54:58;7.30;99.90
11112;DHT22;5609;49.466;8.468;2023-04-07T04:57:26;7.30;99.90
11112;DHT22;5609;49.466;8.468;2023-04-07T04:59:53;7.30;99.90
11112;DHT22;5609;49.466;8.468;2023-04-07T05:02:20;7.40;99.90
11112;DHT22;5609;49.466;8.468;2023-04-07T05:04:46;7.30;99.90
11112;DHT22;5609;49.466;8.468;2023-04-07T05:07:13;7.30;99.90
11112;DHT22;5609;49.466;8.468;2023-04-07T05:09:40;7.40;99.90
11112;DHT22;5609;49.466;8.468;2023-04-07T05:12:06;7.40;99.90
11112;DHT22;5609;49.466;8.468;2023-04-07T05:14:34;7.40;99.90
11112;DHT22;5609;49.466;8.468;2023-04-07T05:17:01;7.40;99.90
11112;DHT22;5609;49.466;8.468;2023-04-07T05:19:28;7.40;99.90
11112;DHT22;5609;49.466;8.468;2023-04-07T05:21:55;7.40;99.90
11112;DHT22;5609;49.466;8.468;2023-04-07T05:24:22;7.40;99.90
11112;DHT22;5609;49.466;8.468;2023-04-07T05:26:50;7.50;99.90
11112;DHT22;5609;49.466;8.468;2023-04-07T05:29:17;7.50;99.90
11112;DHT22;5609;49.466;8.468;2023-04-07T05:31:45;7.50;99.90
11112;DHT22;5609;49.466;8.468;2023-04-07T05:34:11;7.50;99.90
11112;DHT22;5609;49.466;8.468;2023-04-07T05:36:38;7.50;99.90
11112;DHT22;5609;49.466;8.468;2023-04-07T05:39:06;7.50;99.90
11112;DHT22;5609;49.466;8.468;2023-04-07T05:41:32;7.50;99.90
11112;DHT22;5609;49.466;8.468;2023-04-07T05:43:59;7.60;99.90
11112;DHT22;5609;49.466;8.468;2023-04-07T05:46:26;7.50;99.90
11112;DHT22;5609;49.466;8.468;2023-04-07T05:48:54;7.60;99.90
11112;DHT22;5609;49.466;8.468;2023-04-07T05:51:21;7.60;99.90
11112;DHT22;5609;49.466;8.468;2023-04-07T05:53:48;7.70;99.90
11112;DHT22;5609;49.466;8.468;2023-04-07T05:56:15;7.70;99.90
11112;DHT22;5609;49.466;8.468;2023-04-07T05:58:42;7.80;99.90
11112;DHT22;5609;49.466;8.468;2023-04-07T06:01:08;7.80;99.90
11112;DHT22;5609;49.466;8.468;2023-04-07T06:03:35;7.90;99.90
11112;DHT22;5609;49.466;8.468;2023-04-07T06:06:03;8.00;99.90
11112;DHT22;5609;49.466;8.468;2023-04-07T06:08:30;8.10;99.90
11112;DHT22;5609;49.466;8.468;2023-04-07T06:10:57;8.20;99.90
11112;DHT22;5609;49.466;8.468;2023-04-07T06:13:23;8.10;99.90
11112;DHT22;5609;49.466;8.468;2023-04-07T06:15:50;8.20;99.90
11112;DHT22;5609;49.466;8.468;2023-04-07T06:18:17;8.20;99.90
11112;DHT22;5609;49.466;8.468;2023-04-07T06:20:44;8.30;99.90
11112;DHT22;5609;49.466;8.468;2023-04-07T06:23:12;8.30;99.90
11112;DHT22;5609;49.466;8.468;2023-04-07T06:25:39;8.20;99.90
11112;DHT22;5609;49.466;8.468;2023-04-07T06:28:05;8.30;99.90
11112;DHT22;5609;49.466;8.468;2023-04-07T06:30:33;8.20;99.90
11112;DHT22;5609;49.466;8.468;2023-04-07T06:32:59;8.30;99.90
11112;DHT22;5609;49.466;8.468;2023-04-07T06:35:26;8.40;99.90
11112;DHT22;5609;49.466;8.468;2023-04-07T06:37:53;8.40;99.90
11112;DHT22;5609;49.466;8.468;2023-04-07T06:40:21;8.50;99.90
11112;DHT22;5609;49.466;8.468;2023-04-07T06:42:48;8.60;99.90
11112;DHT22;5609;49.466;8.468;2023-04-07T06:45:14;8.70;99.90
11112;DHT22;5609;49.466;8.468;2023-04-07T06:47:41;8.70;99.90
11112;DHT22;5609;49.466;8.468;2023-04-07T06:50:08;8.70;99.90
11112;DHT22;5609;49.466;8.468;2023-04-07T06:52:35;8.80;99.90
11112;DHT22;5609;49.466;8.468;2023-04-07T06:55:02;8.80;99.90
11112;DHT22;5609;49.466;8.468;2023-04-07T06:57:30;8.90;99.90
11112;DHT22;5609;49.466;8.468;2023-04-07T06:59:56;8.90;99.90
11112;DHT22;5609;49.466;8.468;2023-04-07T07:02:23;9.00;99.90
11112;DHT22;5609;49.466;8.468;2023-04-07T07:04:50;9.10;99.90
11112;DHT22;5609;49.466;8.468;2023-04-07T07:07:17;9.20;99.90
11112;DHT22;5609;49.466;8.468;2023-04-07T07:09:43;9.30;99.90
11112;DHT22;5609;49.466;8.468;2023-04-07T07:12:10;9.30;99.90
11112;DHT22;5609;49.466;8.468;2023-04-07T07:14:38;9.40;99.90
11112;DHT22;5609;49.466;8.468;2023-04-07T07:17:05;9.50;99.90
11112;DHT22;5609;49.466;8.468;2023-04-07T07:19:32;9.60;99.90
11112;DHT22;5609;49.466;8.468;2023-04-07T07:21:59;9.70;99.90
11112;DHT22;5609;49.466;8.468;2023-04-07T07:24:28;9.80;99.90
11112;DHT22;5609;49.466;8.468;2023-04-07T07:26:55;10.00;99.90
11112;DHT22;5609;49.466;8.468;2023-04-07T07:29:22;10.20;99.90
11112;DHT22;5609;49.466;8.468;2023-04-07T07:31:50;10.30;99.90
11112;DHT22;5609;49.466;8.468;2023-04-07T07:34:17;10.30;99.90
11112;DHT22;5609;49.466;8.468;2023-04-07T07:36:43;10.40;99.90
11112;DHT22;5609;49.466;8.468;2023-04-07T07:39:10;10.50;99.90
11112;DHT22;5609;49.466;8.468;2023-04-07T07:41:38;10.60;99.90
11112;DHT22;5609;49.466;8.468;2023-04-07T07:44:05;10.70;99.90
11112;DHT22;5609;49.466;8.468;2023-04-07T07:46:32;10.90;99.90
11112;DHT22;5609;49.466;8.468;2023-04-07T07:49:00;10.90;99.90
11112;DHT22;5609;49.466;8.468;2023-04-07T07:51:27;11.00;99.90
11112;DHT22;5609;49.466;8.468;2023-04-07T07:53:54;11.20;99.90
11112;DHT22;5609;49.466;8.468;2023-04-07T07:56:20;11.30;99.90
11112;DHT22;5609;49.466;8.468;2023-04-07T07:58:48;11.40;99.90
11112;DHT22;5609;49.466;8.468;2023-04-07T08:01:15;11.60;99.90
11112;DHT22;5609;49.466;8.468;2023-04-07T08:03:42;11.80;99.90
11112;DHT22;5609;49.466;8.468;2023-04-07T08:06:10;12.20;99.90
11112;DHT22;5609;49.466;8.468;2023-04-07T08:08:37;12.50;99.90
11112;DHT22;5609;49.466;8.468;2023-04-07T08:11:04;12.70;99.90
11112;DHT22;5609;49.466;8.468;2023-04-07T08:13:31;12.60;99.90
11112;DHT22;5609;49.466;8.468;2023-04-07T08:15:57;12.90;99.90
11112;DHT22;5609;49.466;8.468;2023-04-07T08:18:24;13.10;99.90
11112;DHT22;5609;49.466;8.468;2023-04-07T08:20:51;13.20;99.90
11112;DHT22;5609;49.466;8.468;2023-04-07T08:23:19;13.30;99.90
11112;DHT22;5609;49.466;8.468;2023-04-07T08:25:46;13.30;99.90
11112;DHT22;5609;49.466;8.468;2023-04-07T08:28:12;13.00;99.90
11112;DHT22;5609;49.466;8.468;2023-04-07T08:30:40;13.10;99.90
11112;DHT22;5609;49.466;8.468;2023-04-07T08:33:07;12.80;99.90
11112;DHT22;5609;49.466;8.468;2023-04-07T08:35:33;13.10;99.90
11112;DHT22;5609;49.466;8.468;2023-04-07T08:38:00;13.20;99.90
11112;DHT22;5609;49.466;8.468;2023-04-07T08:40:29;13.50;99.90
11112;DHT22;5609;49.466;8.468;2023-04-07T08:42:59;13.80;99.90
11112;DHT22;5609;49.466;8.468;2023-04-07T08:45:26;13.80;99.90
11112;DHT22;5609;49.466;8.468;2023-04-07T08:47:55;14.20;99.90
11112;DHT22;5609;49.466;8.468;2023-04-07T08:50:25;14.30;99.90
11112;DHT22;5609;49.466;8.468;2023-04-07T08:52:53;14.10;99.90
11112;DHT22;5609;49.466;8.468;2023-04-07T08:55:21;14.00;99.90
11112;DHT22;5609;49.466;8.468;2023-04-07T08:57:49;14.10;99.90
11112;DHT22;5609;49.466;8.468;2023-04-07T09:00:17;14.30;99.90
11112;DHT22;5609;49.466;8.468;2023-04-07T09:02:44;14.20;99.90
11112;DHT22;5609;49.466;8.468;2023-04-07T09:05:12;14.10;99.90
11112;DHT22;5609;49.466;8.468;2023-04-07T09:07:40;14.20;99.90
11112;DHT22;5609;49.466;8.468;2023-04-07T09:10:08;14.20;99.90
11112;DHT22;5609;49.466;8.468;2023-04-07T09:12:35;14.20;99.90
11112;DHT22;5609;49.466;8.468;2023-04-07T09:15:05;14.20;99.90
11112;DHT22;5609;49.466;8.468;2023-04-07T09:17:32;14.20;99.90
11112;DHT22;5609;49.466;8.468;2023-04-07T09:19:59;14.40;99.90
11112;DHT22;5609;49.466;8.468;2023-04-07T09:22:36;14.60;99.90
11112;DHT22;5609;49.466;8.468;2023-04-07T09:25:14;14.70;99.90
11112;DHT22;5609;49.466;8.468;2023-04-07T09:27:53;14.60;99.90
11112;DHT22;5609;49.466;8.468;2023-04-07T09:30:22;14.90;99.90
11112;DHT22;5609;49.466;8.468;2023-04-07T09:32:49;14.90;99.90
11112;DHT22;5609;49.466;8.468;2023-04-07T09:35:16;14.80;99.90
11112;DHT22;5609;49.466;8.468;2023-04-07T09:37:42;14.50;99.90
11112;DHT22;5609;49.466;8.468;2023-04-07T09:40:09;14.50;99.90
11112;DHT22;5609;49.466;8.468;2023-04-07T09:42:44;14.20;99.90
11112;DHT22;5609;49.466;8.468;2023-04-07T09:45:10;14.00;99.90
11112;DHT22;5609;49.466;8.468;2023-04-07T09:47:39;13.90;99.90
11112;DHT22;5609;49.466;8.468;2023-04-07T09:50:06;13.80;99.90
11112;DHT22;5609;49.466;8.468;2023-04-07T09:52:50;13.80;99.90
11112;DHT22;5609;49.466;8.468;2023-04-07T09:55:20;13.80;99.90
11112;DHT22;5609;49.466;8.468;2023-04-07T09:57:48;13.80;99.90
11112;DHT22;5609;49.466;8.468;2023-04-07T10:00:15;14.00;99.90
11112;DHT22;5609;49.466;8.468;2023-04-07T10:02:43;14.20;99.90
11112;DHT22;5609;49.466;8.468;2023-04-07T10:05:11;14.20;99.90
11112;DHT22;5609;49.466;8.468;2023-04-07T10:07:38;14.30;99.90
11112;DHT22;5609;49.466;8.468;2023-04-07T10:10:06;14.50;99.90
11112;DHT22;5609;49.466;8.468;2023-04-07T10:12:33;14.40;99.90
11112;DHT22;5609;49.466;8.468;2023-04-07T10:15:01;14.70;99.90
11112;DHT22;5609;49.466;8.468;2023-04-07T10:17:28;14.70;99.90
11112;DHT22;5609;49.466;8.468;2023-04-07T10:19:57;14.60;99.90
11112;DHT22;5609;49.466;8.468;2023-04-07T10:22:24;14.60;99.90
11112;DHT22;5609;49.466;8.468;2023-04-07T10:24:57;14.60;99.90
11112;DHT22;5609;49.466;8.468;2023-04-07T10:27:29;14.60;99.90
11112;DHT22;5609;49.466;8.468;2023-04-07T10:29:58;14.60;99.90
11112;DHT22;5609;49.466;8.468;2023-04-07T10:32:25;14.70;99.90
11112;DHT22;5609;49.466;8.468;2023-04-07T10:34:58;14.70;99.90
11112;DHT22;5609;49.466;8.468;2023-04-07T10:37:26;14.90;99.90
11112;DHT22;5609;49.466;8.468;2023-04-07T10:40:27;15.10;99.90
11112;DHT22;5609;49.466;8.468;2023-04-07T10:42:54;15.50;99.90
11112;DHT22;5609;49.466;8.468;2023-04-07T10:45:53;15.40;99.90
11112;DHT22;5609;49.466;8.468;2023-04-07T10:48:21;15.50;99.90
11112;DHT22;5609;49.466;8.468;2023-04-07T10:54:18;15.30;99.90
11112;DHT22;5609;49.466;8.468;2023-04-07T10:57:10;15.40;99.90
11112;DHT22;5609;49.466;8.468;2023-04-07T10:59:38;15.40;99.90
11112;DHT22;5609;49.466;8.468;2023-04-07T11:02:32;15.40;99.90
11112;DHT22;5609;49.466;8.468;2023-04-07T11:04:59;15.30;99.90
11112;DHT22;5609;49.466;8.468;2023-04-07T11:07:47;15.50;99.90
11112;DHT22;5609;49.466;8.468;2023-04-07T11:10:16;15.70;99.90
11112;DHT22;5609;49.466;8.468;2023-04-07T11:12:56;15.80;99.90
11112;DHT22;5609;49.466;8.468;2023-04-07T11:15:24;15.80;99.90
11112;DHT22;5609;49.466;8.468;2023-04-07T11:18:12;16.00;99.90
11112;DHT22;5609;49.466;8.468;2023-04-07T11:20:40;15.80;99.90
11112;DHT22;5609;49.466;8.468;2023-04-07T11:23:07;15.90;99.90
11112;DHT22;5609;49.466;8.468;2023-04-07T11:25:35;15.70;99.90
11112;DHT22;5609;49.466;8.468;2023-04-07T11:28:03;16.30;99.90
11112;DHT22;5609;49.466;8.468;2023-04-07T11:30:30;16.10;99.90
11112;DHT22;5609;49.466;8.468;2023-04-07T11:32:57;16.10;99.90
11112;DHT22;5609;49.466;8.468;2023-04-07T11:35:24;16.00;99.90
11112;DHT22;5609;49.466;8.468;2023-04-07T11:37:56;16.10;99.90
11112;DHT22;5609;49.466;8.468;2023-04-07T11:40:35;15.90;99.90
11112;DHT22;5609;49.466;8.468;2023-04-07T11:43:02;16.00;99.90
11112;DHT22;5609;49.466;8.468;2023-04-07T11:45:40;15.50;99.90
11112;DHT22;5609;49.466;8.468;2023-04-07T11:48:26;15.00;99.90
11112;DHT22;5609;49.466;8.468;2023-04-07T11:50:53;15.10;99.90
11112;DHT22;5609;49.466;8.468;2023-04-07T11:53:27;14.80;99.90
11112;DHT22;5609;49.466;8.468;2023-04-07T11:56:03;14.50;99.90
11112;DHT22;5609;49.466;8.468;2023-04-07T11:58:30;14.30;99.90
11112;DHT22;5609;49.466;8.468;2023-04-07T12:00:58;14.30;99.90
11112;DHT22;5609;49.466;8.468;2023-04-07T12:03:29;14.50;99.90
11112;DHT22;5609;49.466;8.468;2023-04-07T12:05:56;14.40;99.90
11112;DHT22;5609;49.466;8.468;2023-04-07T12:08:36;14.50;99.90
11112;DHT22;5609;49.466;8.468;2023-04-07T12:11:04;14.40;99.90
11112;DHT22;5609;49.466;8.468;2023-04-07T12:13:32;14.40;99.90
11112;DHT22;5609;49.466;8.468;2023-04-07T12:15:59;14.50;99.90
11112;DHT22;5609;49.466;8.468;2023-04-07T12:18:27;14.70;99.90
11112;DHT22;5609;49.466;8.468;2023-04-07T12:20:54;15.10;99.90
11112;DHT22;5609;49.466;8.468;2023-04-07T12:23:21;15.10;99.90
11112;DHT22;5609;49.466;8.468;2023-04-07T12:25:47;15.00;99.90
11112;DHT22;5609;49.466;8.468;2023-04-07T12:28:16;14.90;99.90
11112;DHT22;5609;49.466;8.468;2023-04-07T12:30:42;14.80;99.90
11112;DHT22;5609;49.466;8.468;2023-04-07T12:33:09;14.70;99.90
11112;DHT22;5609;49.466;8.468;2023-04-07T12:35:36;14.80;99.90
11112;DHT22;5609;49.466;8.468;2023-04-07T12:38:03;14.70;99.90
11112;DHT22;5609;49.466;8.468;2023-04-07T12:40:31;14.60;99.90
11112;DHT22;5609;49.466;8.468;2023-04-07T12:42:59;14.60;99.90
11112;DHT22;5609;49.466;8.468;2023-04-07T12:45:27;14.70;99.90
11112;DHT22;5609;49.466;8.468;2023-04-07T12:47:55;14.90;99.90
11112;DHT22;5609;49.466;8.468;2023-04-07T12:50:22;15.10;99.90
11112;DHT22;5609;49.466;8.468;2023-04-07T12:52:49;15.10;99.90
11112;DHT22;5609;49.466;8.468;2023-04-07T12:55:16;15.20;99.90
11112;DHT22;5609;49.466;8.468;2023-04-07T12:57:43;15.50;99.90
11112;DHT22;5609;49.466;8.468;2023-04-07T13:00:10;15.70;99.90
11112;DHT22;5609;49.466;8.468;2023-04-07T13:02:39;15.90;99.90
11112;DHT22;5609;49.466;8.468;2023-04-07T13:05:06;16.70;99.90
11112;DHT22;5609;49.466;8.468;2023-04-07T13:07:33;17.40;99.90
11112;DHT22;5609;49.466;8.468;2023-04-07T13:10:00;17.50;99.90
11112;DHT22;5609;49.466;8.468;2023-04-07T13:12:27;17.40;99.90
11112;DHT22;5609;49.466;8.468;2023-04-07T13:14:54;17.00;99.90
11112;DHT22;5609;49.466;8.468;2023-04-07T13:17:21;16.40;99.90
11112;DHT22;5609;49.466;8.468;2023-04-07T13:19:49;16.00;99.90
11112;DHT22;5609;49.466;8.468;2023-04-07T13:22:17;15.70;99.90
11112;DHT22;5609;49.466;8.468;2023-04-07T13:24:43;15.40;99.90
11112;DHT22;5609;49.466;8.468;2023-04-07T13:27:10;15.20;99.90
11112;DHT22;5609;49.466;8.468;2023-04-07T13:29:37;14.90;99.90
11112;DHT22;5609;49.466;8.468;2023-04-07T13:32:04;14.90;99.90
11112;DHT22;5609;49.466;8.468;2023-04-07T13:34:32;14.70;99.90
11112;DHT22;5609;49.466;8.468;2023-04-07T13:37:01;14.40;99.90
11112;DHT22;5609;49.466;8.468;2023-04-07T13:39:29;14.50;99.90
11112;DHT22;5609;49.466;8.468;2023-04-07T13:41:55;14.20;99.90
11112;DHT22;5609;49.466;8.468;2023-04-07T13:44:23;14.20;99.90
11112;DHT22;5609;49.466;8.468;2023-04-07T13:46:50;14.20;99.90
11112;DHT22;5609;49.466;8.468;2023-04-07T13:49:18;14.20;99.90
11112;DHT22;5609;49.466;8.468;2023-04-07T13:51:45;14.30;99.90
11112;DHT22;5609;49.466;8.468;2023-04-07T13:54:13;14.30;99.90
11112;DHT22;5609;49.466;8.468;2023-04-07T13:56:39;14.40;99.90
11112;DHT22;5609;49.466;8.468;2023-04-07T13:59:07;14.50;99.90
11112;DHT22;5609;49.466;8.468;2023-04-07T14:01:34;14.60;99.90
11112;DHT22;5609;49.466;8.468;2023-04-07T14:04:03;14.80;99.90
11112;DHT22;5609;49.466;8.468;2023-04-07T14:06:30;14.90;99.90
11112;DHT22;5609;49.466;8.468;2023-04-07T14:08:57;15.20;99.90
11112;DHT22;5609;49.466;8.468;2023-04-07T14:11:25;15.60;99.90
11112;DHT22;5609;49.466;8.468;2023-04-07T14:13:54;15.70;99.90
11112;DHT22;5609;49.466;8.468;2023-04-07T14:16:21;15.50;99.90
11112;DHT22;5609;49.466;8.468;2023-04-07T14:18:47;15.30;99.90
11112;DHT22;5609;49.466;8.468;2023-04-07T14:21:16;15.10;99.90
11112;DHT22;5609;49.466;8.468;2023-04-07T14:23:42;15.10;99.90
11112;DHT22;5609;49.466;8.468;2023-04-07T14:26:09;15.00;99.90
11112;DHT22;5609;49.466;8.468;2023-04-07T14:28:38;15.10;99.90
11112;DHT22;5609;49.466;8.468;2023-04-07T14:31:05;14.80;99.90
11112;DHT22;5609;49.466;8.468;2023-04-07T14:33:32;14.70;99.90
11112;DHT22;5609;49.466;8.468;2023-04-07T14:35:58;14.80;99.90
11112;DHT22;5609;49.466;8.468;2023-04-07T14:38:25;14.60;99.90
11112;DHT22;5609;49.466;8.468;2023-04-07T14:40:52;14.50;99.90
11112;DHT22;5609;49.466;8.468;2023-04-07T14:43:18;14.10;99.90
11112;DHT22;5609;49.466;8.468;2023-04-07T14:45:47;14.20;99.90
11112;DHT22;5609;49.466;8.468;2023-04-07T14:48:13;14.10;99.90
11112;DHT22;5609;49.466;8.468;2023-04-07T14:50:41;13.90;99.90
11112;DHT22;5609;49.466;8.468;2023-04-07T14:53:08;13.70;99.90
11112;DHT22;5609;49.466;8.468;2023-04-07T14:55:35;13.40;99.90
11112;DHT22;5609;49.466;8.468;2023-04-07T14:58:01;13.20;99.90
11112;DHT22;5609;49.466;8.468;2023-04-07T15:00:28;13.00;99.90
11112;DHT22;5609;49.466;8.468;2023-04-07T15:02:56;12.90;99.90
11112;DHT22;5609;49.466;8.468;2023-04-07T15:05:23;13.10;99.90
11112;DHT22;5609;49.466;8.468;2023-04-07T15:07:50;13.20;99.90
11112;DHT22;5609;49.466;8.468;2023-04-07T15:10:17;13.30;99.90
11112;DHT22;5609;49.466;8.468;2023-04-07T15:12:44;13.20;99.90
11112;DHT22;5609;49.466;8.468;2023-04-07T15:15:11;13.10;99.90
11112;DHT22;5609;49.466;8.468;2023-04-07T15:17:38;13.10;99.90
11112;DHT22;5609;49.466;8.468;2023-04-07T15:20:07;12.90;99.90
11112;DHT22;5609;49.466;8.468;2023-04-07T15:22:34;12.80;99.90
11112;DHT22;5609;49.466;8.468;2023-04-07T15:25:00;12.80;99.90
11112;DHT22;5609;49.466;8.468;2023-04-07T15:27:28;12.90;99.90
11112;DHT22;5609;49.466;8.468;2023-04-07T15:29:55;12.90;99.90
11112;DHT22;5609;49.466;8.468;2023-04-07T15:32:21;12.90;99.90
11112;DHT22;5609;49.466;8.468;2023-04-07T15:34:48;12.80;99.90
11112;DHT22;5609;49.466;8.468;2023-04-07T15:37:16;12.80;99.90
11112;DHT22;5609;49.466;8.468;2023-04-07T15:39:43;12.90;99.90
11112;DHT22;5609;49.466;8.468;2023-04-07T15:42:10;12.80;99.90
11112;DHT22;5609;49.466;8.468;2023-04-07T15:44:37;12.80;99.90
11112;DHT22;5609;49.466;8.468;2023-04-07T15:47:04;12.90;99.90
11112;DHT22;5609;49.466;8.468;2023-04-07T15:49:31;12.90;99.90
11112;DHT22;5609;49.466;8.468;2023-04-07T15:51:58;13.00;99.90
11112;DHT22;5609;49.466;8.468;2023-04-07T15:54:26;13.10;99.90
11112;DHT22;5609;49.466;8.468;2023-04-07T15:56:53;13.20;99.90
11112;DHT22;5609;49.466;8.468;2023-04-07T15:59:20;13.00;99.90
11112;DHT22;5609;49.466;8.468;2023-04-07T16:01:47;12.80;99.90